Terminal Aerodrome Forecast
Issued by NWS

Home | Current Version | Previous Version | Text Only | Print | Product List | Glossary On
Versions: 1 2 3 4 5 6 7 8 9 10 11 12 13 14 15 16
000
FTUS45 KGJT 250542 AAA
TAFMTJ
TAF AMD
KMTJ 250542Z 2506/2606 15006KT P6SM BKN090
     FM250900 14004KT P6SM SCT100
     FM251500 VRB03KT P6SM SKC
     FM252000 32006KT P6SM SKC
     FM260300 14007KT P6SM SKC=

USA.gov is the U.S. government's official web portal to all federal, state and local government web resources and services.